sensor_id;sensor_type;location;lat;lon;timestamp;temperature;humidity
54540;SHT30;40438;52.992;18.604;2023-05-07T00:00:56;5.84;87.14
54540;SHT30;40438;52.992;18.604;2023-05-07T00:03:23;5.80;87.13
54540;SHT30;40438;52.992;18.604;2023-05-07T00:05:49;5.76;87.15
54540;SHT30;40438;52.992;18.604;2023-05-07T00:08:15;5.70;87.10
54540;SHT30;40438;52.992;18.604;2023-05-07T00:10:40;5.66;87.16
54540;SHT30;40438;52.992;18.604;2023-05-07T00:13:06;5.63;87.16
54540;SHT30;40438;52.992;18.604;2023-05-07T00:15:32;5.62;87.16
54540;SHT30;40438;52.992;18.604;2023-05-07T00:17:58;5.56;87.10
54540;SHT30;40438;52.992;18.604;2023-05-07T00:20:25;5.56;87.08
54540;SHT30;40438;52.992;18.604;2023-05-07T00:22:51;5.51;87.08
54540;SHT30;40438;52.992;18.604;2023-05-07T00:25:17;5.49;87.04
54540;SHT30;40438;52.992;18.604;2023-05-07T00:27:43;5.44;86.97
54540;SHT30;40438;52.992;18.604;2023-05-07T00:30:09;5.35;87.22
54540;SHT30;40438;52.992;18.604;2023-05-07T00:32:35;5.33;87.20
54540;SHT30;40438;52.992;18.604;2023-05-07T00:35:01;5.30;87.09
54540;SHT30;40438;52.992;18.604;2023-05-07T00:37:28;5.23;87.12
54540;SHT30;40438;52.992;18.604;2023-05-07T00:39:54;5.22;87.19
54540;SHT30;40438;52.992;18.604;2023-05-07T00:42:19;5.20;87.18
54540;SHT30;40438;52.992;18.604;2023-05-07T00:44:45;5.16;87.11
54540;SHT30;40438;52.992;18.604;2023-05-07T00:47:11;5.05;87.09
54540;SHT30;40438;52.992;18.604;2023-05-07T00:49:39;5.05;87.15
54540;SHT30;40438;52.992;18.604;2023-05-07T00:52:06;4.99;87.19
54540;SHT30;40438;52.992;18.604;2023-05-07T00:54:34;4.99;87.18
54540;SHT30;40438;52.992;18.604;2023-05-07T00:57:01;4.95;87.19
54540;SHT30;40438;52.992;18.604;2023-05-07T00:59:27;4.95;87.04
54540;SHT30;40438;52.992;18.604;2023-05-07T01:01:53;4.92;86.96
54540;SHT30;40438;52.992;18.604;2023-05-07T01:04:19;4.88;87.04
54540;SHT30;40438;52.992;18.604;2023-05-07T01:06:45;4.83;87.14
54540;SHT30;40438;52.992;18.604;2023-05-07T01:09:11;4.81;87.14
54540;SHT30;40438;52.992;18.604;2023-05-07T01:11:39;4.83;87.13
54540;SHT30;40438;52.992;18.604;2023-05-07T01:14:05;4.77;87.08
54540;SHT30;40438;52.992;18.604;2023-05-07T01:16:32;4.73;86.97
54540;SHT30;40438;52.992;18.604;2023-05-07T01:18:58;4.68;86.91
54540;SHT30;40438;52.992;18.604;2023-05-07T01:21:25;4.70;87.08
54540;SHT30;40438;52.992;18.604;2023-05-07T01:23:53;4.70;87.03
54540;SHT30;40438;52.992;18.604;2023-05-07T01:26:20;4.73;86.97
54540;SHT30;40438;52.992;18.604;2023-05-07T01:28:46;4.70;86.81
54540;SHT30;40438;52.992;18.604;2023-05-07T01:31:12;4.67;86.81
54540;SHT30;40438;52.992;18.604;2023-05-07T01:33:40;4.67;86.71
54540;SHT30;40438;52.992;18.604;2023-05-07T01:36:08;4.66;86.77
54540;SHT30;40438;52.992;18.604;2023-05-07T01:38:34;4.70;86.69
54540;SHT30;40438;52.992;18.604;2023-05-07T01:41:03;4.71;86.54
54540;SHT30;40438;52.992;18.604;2023-05-07T01:43:29;4.71;86.38
54540;SHT30;40438;52.992;18.604;2023-05-07T01:45:57;4.70;86.23
54540;SHT30;40438;52.992;18.604;2023-05-07T01:48:24;4.66;86.08
54540;SHT30;40438;52.992;18.604;2023-05-07T01:50:50;4.63;86.03
54540;SHT30;40438;52.992;18.604;2023-05-07T01:53:16;4.60;85.94
54540;SHT30;40438;52.992;18.604;2023-05-07T01:55:42;4.54;85.95
54540;SHT30;40438;52.992;18.604;2023-05-07T01:58:10;4.50;85.95
54540;SHT30;40438;52.992;18.604;2023-05-07T02:00:36;4.37;86.04
54540;SHT30;40438;52.992;18.604;2023-05-07T02:03:02;4.36;86.27
54540;SHT30;40438;52.992;18.604;2023-05-07T02:05:44;4.32;86.34
54540;SHT30;40438;52.992;18.604;2023-05-07T02:08:27;4.28;86.40
54540;SHT30;40438;52.992;18.604;2023-05-07T02:10:53;4.22;86.34
54540;SHT30;40438;52.992;18.604;2023-05-07T02:13:20;4.20;86.36
54540;SHT30;40438;52.992;18.604;2023-05-07T02:15:46;4.18;86.34
54540;SHT30;40438;52.992;18.604;2023-05-07T02:18:11;4.15;86.26
54540;SHT30;40438;52.992;18.604;2023-05-07T02:20:37;4.10;86.11
54540;SHT30;40438;52.992;18.604;2023-05-07T02:23:03;4.06;86.21
54540;SHT30;40438;52.992;18.604;2023-05-07T02:25:29;4.05;86.21
54540;SHT30;40438;52.992;18.604;2023-05-07T02:27:55;4.02;86.20
54540;SHT30;40438;52.992;18.604;2023-05-07T02:30:28;4.02;86.05
54540;SHT30;40438;52.992;18.604;2023-05-07T02:32:56;4.01;85.91
54540;SHT30;40438;52.992;18.604;2023-05-07T02:35:24;3.99;85.89
54540;SHT30;40438;52.992;18.604;2023-05-07T02:37:50;3.98;85.79
54540;SHT30;40438;52.992;18.604;2023-05-07T02:40:15;3.95;85.74
54540;SHT30;40438;52.992;18.604;2023-05-07T02:42:41;3.95;85.66
54540;SHT30;40438;52.992;18.604;2023-05-07T02:45:08;3.88;85.62
54540;SHT30;40438;52.992;18.604;2023-05-07T02:47:36;3.85;85.59
54540;SHT30;40438;52.992;18.604;2023-05-07T02:50:04;3.77;85.90
54540;SHT30;40438;52.992;18.604;2023-05-07T02:52:30;3.71;85.97
54540;SHT30;40438;52.992;18.604;2023-05-07T02:54:56;3.67;86.30
54540;SHT30;40438;52.992;18.604;2023-05-07T02:57:21;3.66;86.43
54540;SHT30;40438;52.992;18.604;2023-05-07T02:59:47;3.58;86.48
54540;SHT30;40438;52.992;18.604;2023-05-07T03:02:14;3.60;86.51
54540;SHT30;40438;52.992;18.604;2023-05-07T03:04:41;3.57;86.45
54540;SHT30;40438;52.992;18.604;2023-05-07T03:07:07;3.54;86.58
54540;SHT30;40438;52.992;18.604;2023-05-07T03:09:33;3.47;86.72
54540;SHT30;40438;52.992;18.604;2023-05-07T03:11:59;3.44;86.72
54540;SHT30;40438;52.992;18.604;2023-05-07T03:14:24;3.40;87.05
54540;SHT30;40438;52.992;18.604;2023-05-07T03:16:50;3.35;87.26
54540;SHT30;40438;52.992;18.604;2023-05-07T03:19:16;3.36;87.33
54540;SHT30;40438;52.992;18.604;2023-05-07T03:24:08;3.36;87.19
54540;SHT30;40438;52.992;18.604;2023-05-07T03:26:34;3.37;87.02
54540;SHT30;40438;52.992;18.604;2023-05-07T03:29:00;3.40;86.76
54540;SHT30;40438;52.992;18.604;2023-05-07T03:31:26;3.37;86.29
54540;SHT30;40438;52.992;18.604;2023-05-07T03:33:53;3.35;86.31
54540;SHT30;40438;52.992;18.604;2023-05-07T03:36:19;3.35;86.29
54540;SHT30;40438;52.992;18.604;2023-05-07T03:38:47;3.30;86.34
54540;SHT30;40438;52.992;18.604;2023-05-07T03:41:16;3.31;86.30
54540;SHT30;40438;52.992;18.604;2023-05-07T03:43:44;3.30;86.27
54540;SHT30;40438;52.992;18.604;2023-05-07T03:46:11;3.30;86.25
54540;SHT30;40438;52.992;18.604;2023-05-07T03:48:37;3.27;86.28
54540;SHT30;40438;52.992;18.604;2023-05-07T03:51:03;3.27;86.35
54540;SHT30;40438;52.992;18.604;2023-05-07T03:53:32;3.31;86.36
54540;SHT30;40438;52.992;18.604;2023-05-07T03:55:59;3.35;86.48
54540;SHT30;40438;52.992;18.604;2023-05-07T03:58:25;3.35;86.57
54540;SHT30;40438;52.992;18.604;2023-05-07T04:00:53;3.40;86.73
54540;SHT30;40438;52.992;18.604;2023-05-07T04:03:25;3.47;87.09
54540;SHT30;40438;52.992;18.604;2023-05-07T04:05:52;3.51;87.17
54540;SHT30;40438;52.992;18.604;2023-05-07T04:08:18;3.57;87.19
54540;SHT30;40438;52.992;18.604;2023-05-07T04:10:47;3.61;87.08
54540;SHT30;40438;52.992;18.604;2023-05-07T04:13:14;3.64;87.16
54540;SHT30;40438;52.992;18.604;2023-05-07T04:15:41;3.66;87.25
54540;SHT30;40438;52.992;18.604;2023-05-07T04:18:09;3.73;87.44
54540;SHT30;40438;52.992;18.604;2023-05-07T04:20:37;3.79;87.59
54540;SHT30;40438;52.992;18.604;2023-05-07T04:23:04;3.89;87.72
54540;SHT30;40438;52.992;18.604;2023-05-07T04:25:31;3.98;87.74
54540;SHT30;40438;52.992;18.604;2023-05-07T04:28:05;4.08;87.92
54540;SHT30;40438;52.992;18.604;2023-05-07T04:30:33;4.22;88.12
54540;SHT30;40438;52.992;18.604;2023-05-07T04:32:58;4.29;88.11
54540;SHT30;40438;52.992;18.604;2023-05-07T04:35:27;4.36;88.22
54540;SHT30;40438;52.992;18.604;2023-05-07T04:37:53;4.43;88.41
54540;SHT30;40438;52.992;18.604;2023-05-07T04:40:19;4.56;88.65
54540;SHT30;40438;52.992;18.604;2023-05-07T04:42:45;4.66;88.77
54540;SHT30;40438;52.992;18.604;2023-05-07T04:45:11;4.77;88.86
54540;SHT30;40438;52.992;18.604;2023-05-07T04:47:41;4.88;88.93
54540;SHT30;40438;52.992;18.604;2023-05-07T04:50:07;4.99;88.99
54540;SHT30;40438;52.992;18.604;2023-05-07T04:52:33;5.11;88.94
54540;SHT30;40438;52.992;18.604;2023-05-07T04:54:59;5.20;88.83
54540;SHT30;40438;52.992;18.604;2023-05-07T04:57:30;5.30;88.70
54540;SHT30;40438;52.992;18.604;2023-05-07T04:59:55;5.46;88.49
54540;SHT30;40438;52.992;18.604;2023-05-07T05:02:21;5.57;88.38
54540;SHT30;40438;52.992;18.604;2023-05-07T05:04:49;5.66;88.12
54540;SHT30;40438;52.992;18.604;2023-05-07T05:07:14;5.77;87.98
54540;SHT30;40438;52.992;18.604;2023-05-07T05:09:41;5.86;87.76
54540;SHT30;40438;52.992;18.604;2023-05-07T05:12:07;5.97;87.51
54540;SHT30;40438;52.992;18.604;2023-05-07T05:14:35;6.07;87.31
54540;SHT30;40438;52.992;18.604;2023-05-07T05:17:00;6.14;86.92
54540;SHT30;40438;52.992;18.604;2023-05-07T05:19:26;6.25;86.42
54540;SHT30;40438;52.992;18.604;2023-05-07T05:21:53;6.32;86.13
54540;SHT30;40438;52.992;18.604;2023-05-07T05:24:19;6.42;85.77
54540;SHT30;40438;52.992;18.604;2023-05-07T05:26:45;6.46;85.61
54540;SHT30;40438;52.992;18.604;2023-05-07T05:29:11;6.57;84.46
54540;SHT30;40438;52.992;18.604;2023-05-07T05:31:41;6.65;83.81
54540;SHT30;40438;52.992;18.604;2023-05-07T05:34:06;6.75;83.36
54540;SHT30;40438;52.992;18.604;2023-05-07T05:36:32;6.80;83.01
54540;SHT30;40438;52.992;18.604;2023-05-07T05:39:00;6.83;82.89
54540;SHT30;40438;52.992;18.604;2023-05-07T05:41:25;6.93;82.60
54540;SHT30;40438;52.992;18.604;2023-05-07T05:43:52;7.00;82.28
54540;SHT30;40438;52.992;18.604;2023-05-07T05:46:18;7.05;81.61
54540;SHT30;40438;52.992;18.604;2023-05-07T05:48:45;7.14;81.15
54540;SHT30;40438;52.992;18.604;2023-05-07T05:51:11;7.17;80.36
54540;SHT30;40438;52.992;18.604;2023-05-07T05:53:37;7.24;79.48
54540;SHT30;40438;52.992;18.604;2023-05-07T05:56:05;7.32;78.99
54540;SHT30;40438;52.992;18.604;2023-05-07T05:58:32;7.35;78.80
54540;SHT30;40438;52.992;18.604;2023-05-07T06:01:01;7.40;78.58
54540;SHT30;40438;52.992;18.604;2023-05-07T06:03:27;7.39;77.02
54540;SHT30;40438;52.992;18.604;2023-05-07T06:05:55;7.46;76.40
54540;SHT30;40438;52.992;18.604;2023-05-07T06:08:21;7.55;75.60
54540;SHT30;40438;52.992;18.604;2023-05-07T06:10:47;7.55;75.25
54540;SHT30;40438;52.992;18.604;2023-05-07T06:13:15;7.59;75.00
54540;SHT30;40438;52.992;18.604;2023-05-07T06:15:41;7.65;74.90
54540;SHT30;40438;52.992;18.604;2023-05-07T06:18:09;7.75;75.37
54540;SHT30;40438;52.992;18.604;2023-05-07T06:20:35;7.76;75.79
54540;SHT30;40438;52.992;18.604;2023-05-07T06:23:04;7.82;75.98
54540;SHT30;40438;52.992;18.604;2023-05-07T06:25:32;7.91;76.07
54540;SHT30;40438;52.992;18.604;2023-05-07T06:27:58;7.96;75.56
54540;SHT30;40438;52.992;18.604;2023-05-07T06:30:26;7.96;75.10
54540;SHT30;40438;52.992;18.604;2023-05-07T06:32:52;8.04;74.77
54540;SHT30;40438;52.992;18.604;2023-05-07T06:35:19;8.08;74.92
54540;SHT30;40438;52.992;18.604;2023-05-07T06:37:44;8.13;75.24
54540;SHT30;40438;52.992;18.604;2023-05-07T06:40:17;8.20;75.97
54540;SHT30;40438;52.992;18.604;2023-05-07T06:42:43;8.25;75.84
54540;SHT30;40438;52.992;18.604;2023-05-07T06:45:35;8.34;75.57
54540;SHT30;40438;52.992;18.604;2023-05-07T06:48:02;8.41;75.48
54540;SHT30;40438;52.992;18.604;2023-05-07T06:50:31;8.46;75.40
54540;SHT30;40438;52.992;18.604;2023-05-07T06:52:58;8.56;75.28
54540;SHT30;40438;52.992;18.604;2023-05-07T06:55:23;8.60;75.36
54540;SHT30;40438;52.992;18.604;2023-05-07T06:57:50;8.69;75.08
54540;SHT30;40438;52.992;18.604;2023-05-07T07:00:17;8.76;74.76
54540;SHT30;40438;52.992;18.604;2023-05-07T07:02:50;8.86;74.39
54540;SHT30;40438;52.992;18.604;2023-05-07T07:05:20;8.94;71.75
54540;SHT30;40438;52.992;18.604;2023-05-07T07:07:46;9.01;72.30
54540;SHT30;40438;52.992;18.604;2023-05-07T07:10:11;9.07;73.47
54540;SHT30;40438;52.992;18.604;2023-05-07T07:12:37;9.11;72.87
54540;SHT30;40438;52.992;18.604;2023-05-07T07:15:04;9.24;71.86
54540;SHT30;40438;52.992;18.604;2023-05-07T07:19:57;9.37;72.87
54540;SHT30;40438;52.992;18.604;2023-05-07T07:22:23;9.45;73.39
54540;SHT30;40438;52.992;18.604;2023-05-07T07:24:49;9.51;72.65
54540;SHT30;40438;52.992;18.604;2023-05-07T07:27:16;9.59;72.16
54540;SHT30;40438;52.992;18.604;2023-05-07T07:29:42;9.61;71.62
54540;SHT30;40438;52.992;18.604;2023-05-07T07:32:08;9.73;69.94
54540;SHT30;40438;52.992;18.604;2023-05-07T07:34:34;9.79;70.59
54540;SHT30;40438;52.992;18.604;2023-05-07T07:37:02;9.90;68.94
54540;SHT30;40438;52.992;18.604;2023-05-07T07:39:28;9.96;68.58
54540;SHT30;40438;52.992;18.604;2023-05-07T07:41:55;9.95;69.37
54540;SHT30;40438;52.992;18.604;2023-05-07T07:44:21;10.02;68.73
54540;SHT30;40438;52.992;18.604;2023-05-07T07:46:52;9.97;66.12
54540;SHT30;40438;52.992;18.604;2023-05-07T07:49:19;10.09;65.98
54540;SHT30;40438;52.992;18.604;2023-05-07T07:51:45;10.17;66.86
54540;SHT30;40438;52.992;18.604;2023-05-07T07:54:14;10.27;66.89
54540;SHT30;40438;52.992;18.604;2023-05-07T07:56:40;10.37;66.25
54540;SHT30;40438;52.992;18.604;2023-05-07T07:59:08;10.44;65.98
54540;SHT30;40438;52.992;18.604;2023-05-07T08:01:37;10.54;65.53
54540;SHT30;40438;52.992;18.604;2023-05-07T08:04:04;10.57;64.75
54540;SHT30;40438;52.992;18.604;2023-05-07T08:06:31;10.68;64.84
54540;SHT30;40438;52.992;18.604;2023-05-07T08:08:57;10.71;63.69
54540;SHT30;40438;52.992;18.604;2023-05-07T08:11:24;10.81;64.04
54540;SHT30;40438;52.992;18.604;2023-05-07T08:13:52;10.92;63.89
54540;SHT30;40438;52.992;18.604;2023-05-07T08:16:18;11.02;60.81
54540;SHT30;40438;52.992;18.604;2023-05-07T08:18:44;11.09;59.48
54540;SHT30;40438;52.992;18.604;2023-05-07T08:21:10;11.13;60.61
54540;SHT30;40438;52.992;18.604;2023-05-07T08:23:36;11.23;60.72
54540;SHT30;40438;52.992;18.604;2023-05-07T08:26:03;11.31;59.21
54540;SHT30;40438;52.992;18.604;2023-05-07T08:28:31;11.39;60.91
54540;SHT30;40438;52.992;18.604;2023-05-07T08:30:56;11.47;60.77
54540;SHT30;40438;52.992;18.604;2023-05-07T08:33:23;11.63;59.81
54540;SHT30;40438;52.992;18.604;2023-05-07T08:35:49;11.77;57.68
54540;SHT30;40438;52.992;18.604;2023-05-07T08:38:15;11.88;58.21
54540;SHT30;40438;52.992;18.604;2023-05-07T08:40:41;11.98;56.09
54540;SHT30;40438;52.992;18.604;2023-05-07T08:43:13;12.06;57.31
54540;SHT30;40438;52.992;18.604;2023-05-07T08:45:41;12.06;57.31
54540;SHT30;40438;52.992;18.604;2023-05-07T08:48:10;12.11;56.11
54540;SHT30;40438;52.992;18.604;2023-05-07T08:50:39;12.29;56.61
54540;SHT30;40438;52.992;18.604;2023-05-07T08:53:05;12.44;56.91
54540;SHT30;40438;52.992;18.604;2023-05-07T08:55:31;12.53;53.75
54540;SHT30;40438;52.992;18.604;2023-05-07T08:57:57;12.68;54.58
54540;SHT30;40438;52.992;18.604;2023-05-07T09:00:23;12.80;53.34
54540;SHT30;40438;52.992;18.604;2023-05-07T09:02:53;12.82;53.68
54540;SHT30;40438;52.992;18.604;2023-05-07T09:05:19;12.92;55.58
54540;SHT30;40438;52.992;18.604;2023-05-07T09:07:45;12.91;54.44
54540;SHT30;40438;52.992;18.604;2023-05-07T09:10:13;13.08;53.47
54540;SHT30;40438;52.992;18.604;2023-05-07T09:12:40;13.26;52.52
54540;SHT30;40438;52.992;18.604;2023-05-07T09:15:08;13.26;52.28
54540;SHT30;40438;52.992;18.604;2023-05-07T09:17:35;13.50;53.04
54540;SHT30;40438;52.992;18.604;2023-05-07T09:20:06;13.67;52.49
54540;SHT30;40438;52.992;18.604;2023-05-07T09:22:32;13.79;52.91
54540;SHT30;40438;52.992;18.604;2023-05-07T09:25:03;14.01;52.51
54540;SHT30;40438;52.992;18.604;2023-05-07T09:27:30;14.12;51.26
54540;SHT30;40438;52.992;18.604;2023-05-07T09:29:57;14.14;51.73
54540;SHT30;40438;52.992;18.604;2023-05-07T09:32:24;14.12;49.94
54540;SHT30;40438;52.992;18.604;2023-05-07T09:34:51;14.15;50.10
54540;SHT30;40438;52.992;18.604;2023-05-07T09:37:22;14.38;49.18
54540;SHT30;40438;52.992;18.604;2023-05-07T09:39:49;14.72;50.19
54540;SHT30;40438;52.992;18.604;2023-05-07T09:42:23;15.11;47.99
54540;SHT30;40438;52.992;18.604;2023-05-07T09:44:50;15.26;46.73
54540;SHT30;40438;52.992;18.604;2023-05-07T09:47:20;15.51;46.75
54540;SHT30;40438;52.992;18.604;2023-05-07T09:49:50;15.47;47.19
54540;SHT30;40438;52.992;18.604;2023-05-07T09:52:21;15.80;46.52
54540;SHT30;40438;52.992;18.604;2023-05-07T09:54:52;15.66;47.03
54540;SHT30;40438;52.992;18.604;2023-05-07T09:57:22;15.63;47.07
54540;SHT30;40438;52.992;18.604;2023-05-07T09:59:54;15.34;47.34
54540;SHT30;40438;52.992;18.604;2023-05-07T10:02:21;15.30;46.39
54540;SHT30;40438;52.992;18.604;2023-05-07T10:04:52;15.15;47.50
54540;SHT30;40438;52.992;18.604;2023-05-07T10:07:24;14.94;47.25
54540;SHT30;40438;52.992;18.604;2023-05-07T10:09:54;14.76;47.21
54540;SHT30;40438;52.992;18.604;2023-05-07T10:12:28;14.59;47.45
54540;SHT30;40438;52.992;18.604;2023-05-07T10:14:56;14.79;48.29
54540;SHT30;40438;52.992;18.604;2023-05-07T10:17:23;15.11;47.49
54540;SHT30;40438;52.992;18.604;2023-05-07T10:19:49;15.31;45.19
54540;SHT30;40438;52.992;18.604;2023-05-07T10:22:16;15.58;46.47
54540;SHT30;40438;52.992;18.604;2023-05-07T10:24:47;15.93;45.38
54540;SHT30;40438;52.992;18.604;2023-05-07T10:27:17;16.23;42.79
54540;SHT30;40438;52.992;18.604;2023-05-07T10:29:53;16.59;43.49
54540;SHT30;40438;52.992;18.604;2023-05-07T10:32:35;17.05;45.53
54540;SHT30;40438;52.992;18.604;2023-05-07T10:35:06;17.55;43.84
54540;SHT30;40438;52.992;18.604;2023-05-07T10:37:34;17.58;41.87
54540;SHT30;40438;52.992;18.604;2023-05-07T10:40:02;17.67;39.95
54540;SHT30;40438;52.992;18.604;2023-05-07T10:42:30;17.85;40.40
54540;SHT30;40438;52.992;18.604;2023-05-07T10:44:56;17.96;41.58
54540;SHT30;40438;52.992;18.604;2023-05-07T10:47:27;18.01;41.26
54540;SHT30;40438;52.992;18.604;2023-05-07T10:50:21;18.17;39.45
54540;SHT30;40438;52.992;18.604;2023-05-07T10:56:25;18.19;38.23
54540;SHT30;40438;52.992;18.604;2023-05-07T10:59:31;17.98;40.09
54540;SHT30;40438;52.992;18.604;2023-05-07T11:02:01;18.04;39.93
54540;SHT30;40438;52.992;18.604;2023-05-07T11:04:43;17.84;38.26
54540;SHT30;40438;52.992;18.604;2023-05-07T11:07:31;17.48;39.28
54540;SHT30;40438;52.992;18.604;2023-05-07T11:10:06;17.37;39.80
54540;SHT30;40438;52.992;18.604;2023-05-07T11:12:54;17.50;40.11
54540;SHT30;40438;52.992;18.604;2023-05-07T11:15:37;17.57;39.55
54540;SHT30;40438;52.992;18.604;2023-05-07T11:18:11;17.60;37.46
54540;SHT30;40438;52.992;18.604;2023-05-07T11:20:56;17.60;37.75
54540;SHT30;40438;52.992;18.604;2023-05-07T11:24:09;17.85;39.04
54540;SHT30;40438;52.992;18.604;2023-05-07T11:27:01;17.95;40.02
54540;SHT30;40438;52.992;18.604;2023-05-07T11:29:30;17.82;40.26
54540;SHT30;40438;52.992;18.604;2023-05-07T11:32:03;17.73;40.74
54540;SHT30;40438;52.992;18.604;2023-05-07T11:34:34;17.63;40.83
54540;SHT30;40438;52.992;18.604;2023-05-07T11:37:01;17.51;40.39
54540;SHT30;40438;52.992;18.604;2023-05-07T11:39:39;17.27;41.15
54540;SHT30;40438;52.992;18.604;2023-05-07T11:42:05;16.91;41.01
54540;SHT30;40438;52.992;18.604;2023-05-07T11:44:44;16.67;41.80
54540;SHT30;40438;52.992;18.604;2023-05-07T11:47:11;16.67;41.56
54540;SHT30;40438;52.992;18.604;2023-05-07T11:49:37;16.86;40.83
54540;SHT30;40438;52.992;18.604;2023-05-07T11:52:03;16.68;39.19
54540;SHT30;40438;52.992;18.604;2023-05-07T11:54:35;17.03;38.01
54540;SHT30;40438;52.992;18.604;2023-05-07T11:57:01;17.06;38.53
54540;SHT30;40438;52.992;18.604;2023-05-07T11:59:26;17.31;37.96
54540;SHT30;40438;52.992;18.604;2023-05-07T12:01:56;17.51;37.74
54540;SHT30;40438;52.992;18.604;2023-05-07T12:04:22;17.64;35.85
54540;SHT30;40438;52.992;18.604;2023-05-07T12:06:48;17.96;37.05
54540;SHT30;40438;52.992;18.604;2023-05-07T12:09:14;18.16;34.34
54540;SHT30;40438;52.992;18.604;2023-05-07T12:11:39;18.43;35.51
54540;SHT30;40438;52.992;18.604;2023-05-07T12:14:05;18.73;34.81
54540;SHT30;40438;52.992;18.604;2023-05-07T12:16:31;18.87;34.70
54540;SHT30;40438;52.992;18.604;2023-05-07T12:18:59;19.02;33.99
54540;SHT30;40438;52.992;18.604;2023-05-07T12:21:25;18.85;33.09
54540;SHT30;40438;52.992;18.604;2023-05-07T12:23:51;18.57;34.38
54540;SHT30;40438;52.992;18.604;2023-05-07T12:26:19;18.59;34.99
54540;SHT30;40438;52.992;18.604;2023-05-07T12:28:45;18.60;34.33
54540;SHT30;40438;52.992;18.604;2023-05-07T12:31:13;18.64;34.53
54540;SHT30;40438;52.992;18.604;2023-05-07T12:33:39;18.85;34.33
54540;SHT30;40438;52.992;18.604;2023-05-07T12:36:07;18.91;33.17
54540;SHT30;40438;52.992;18.604;2023-05-07T12:38:37;19.16;34.94
54540;SHT30;40438;52.992;18.604;2023-05-07T12:41:04;19.23;33.30
54540;SHT30;40438;52.992;18.604;2023-05-07T12:43:30;19.16;34.04
54540;SHT30;40438;52.992;18.604;2023-05-07T12:45:57;19.32;34.78
54540;SHT30;40438;52.992;18.604;2023-05-07T12:48:26;19.35;33.80
54540;SHT30;40438;52.992;18.604;2023-05-07T12:50:53;19.42;34.08
54540;SHT30;40438;52.992;18.604;2023-05-07T12:53:22;19.74;33.37
54540;SHT30;40438;52.992;18.604;2023-05-07T12:55:49;20.07;33.03
54540;SHT30;40438;52.992;18.604;2023-05-07T12:58:16;19.98;33.68
54540;SHT30;40438;52.992;18.604;2023-05-07T13:00:42;19.77;34.32
54540;SHT30;40438;52.992;18.604;2023-05-07T13:03:08;19.60;33.62
54540;SHT30;40438;52.992;18.604;2023-05-07T13:05:34;19.70;34.32
54540;SHT30;40438;52.992;18.604;2023-05-07T13:08:00;20.17;32.78
54540;SHT30;40438;52.992;18.604;2023-05-07T13:10:27;20.14;32.55
54540;SHT30;40438;52.992;18.604;2023-05-07T13:12:53;20.36;32.54
54540;SHT30;40438;52.992;18.604;2023-05-07T13:15:19;20.29;33.66
54540;SHT30;40438;52.992;18.604;2023-05-07T13:17:45;20.21;32.95
54540;SHT30;40438;52.992;18.604;2023-05-07T13:20:11;20.03;33.57
54540;SHT30;40438;52.992;18.604;2023-05-07T13:22:37;20.03;32.66
54540;SHT30;40438;52.992;18.604;2023-05-07T13:25:03;20.03;32.73
54540;SHT30;40438;52.992;18.604;2023-05-07T13:27:30;20.00;32.06
54540;SHT30;40438;52.992;18.604;2023-05-07T13:29:56;20.38;32.96
54540;SHT30;40438;52.992;18.604;2023-05-07T13:32:22;20.56;31.57
54540;SHT30;40438;52.992;18.604;2023-05-07T13:34:48;20.96;30.73
54540;SHT30;40438;52.992;18.604;2023-05-07T13:37:14;21.20;31.38
54540;SHT30;40438;52.992;18.604;2023-05-07T13:39:40;21.08;29.75
54540;SHT30;40438;52.992;18.604;2023-05-07T13:42:06;20.86;30.79
54540;SHT30;40438;52.992;18.604;2023-05-07T13:44:33;21.10;31.01
54540;SHT30;40438;52.992;18.604;2023-05-07T13:46:59;21.30;30.83
54540;SHT30;40438;52.992;18.604;2023-05-07T13:49:25;21.78;30.67
54540;SHT30;40438;52.992;18.604;2023-05-07T13:51:50;21.57;29.12
54540;SHT30;40438;52.992;18.604;2023-05-07T13:54:16;21.47;28.97
54540;SHT30;40438;52.992;18.604;2023-05-07T13:56:42;21.22;28.85
54540;SHT30;40438;52.992;18.604;2023-05-07T13:59:08;21.30;29.33
54540;SHT30;40438;52.992;18.604;2023-05-07T14:01:35;21.07;29.69
54540;SHT30;40438;52.992;18.604;2023-05-07T14:04:01;21.10;29.28
54540;SHT30;40438;52.992;18.604;2023-05-07T14:06:27;20.82;30.26
54540;SHT30;40438;52.992;18.604;2023-05-07T14:08:53;20.89;30.24
54540;SHT30;40438;52.992;18.604;2023-05-07T14:11:18;20.96;30.25
54540;SHT30;40438;52.992;18.604;2023-05-07T14:13:44;21.30;29.70
54540;SHT30;40438;52.992;18.604;2023-05-07T14:16:10;21.31;29.23
54540;SHT30;40438;52.992;18.604;2023-05-07T14:18:37;21.51;30.12
54540;SHT30;40438;52.992;18.604;2023-05-07T14:21:04;21.90;29.32
54540;SHT30;40438;52.992;18.604;2023-05-07T14:23:30;22.00;30.58
54540;SHT30;40438;52.992;18.604;2023-05-07T14:25:55;21.83;28.70
54540;SHT30;40438;52.992;18.604;2023-05-07T14:28:21;21.44;29.03
54540;SHT30;40438;52.992;18.604;2023-05-07T14:30:47;21.57;29.04
54540;SHT30;40438;52.992;18.604;2023-05-07T14:33:13;21.38;29.56
54540;SHT30;40438;52.992;18.604;2023-05-07T14:35:40;21.32;30.31
54540;SHT30;40438;52.992;18.604;2023-05-07T14:38:06;21.40;29.71
54540;SHT30;40438;52.992;18.604;2023-05-07T14:40:31;21.63;31.62
54540;SHT30;40438;52.992;18.604;2023-05-07T14:42:57;21.80;29.98
54540;SHT30;40438;52.992;18.604;2023-05-07T14:45:23;21.85;27.15
54540;SHT30;40438;52.992;18.604;2023-05-07T14:47:49;22.08;26.71
54540;SHT30;40438;52.992;18.604;2023-05-07T14:50:14;22.08;27.85
54540;SHT30;40438;52.992;18.604;2023-05-07T14:52:42;21.35;28.73
54540;SHT30;40438;52.992;18.604;2023-05-07T14:55:08;21.45;28.81
54540;SHT30;40438;52.992;18.604;2023-05-07T14:57:34;21.72;29.25
54540;SHT30;40438;52.992;18.604;2023-05-07T15:00:00;21.85;28.51
54540;SHT30;40438;52.992;18.604;2023-05-07T15:02:26;21.80;28.05
54540;SHT30;40438;52.992;18.604;2023-05-07T15:04:52;21.86;28.21
54540;SHT30;40438;52.992;18.604;2023-05-07T15:07:18;22.33;27.58
54540;SHT30;40438;52.992;18.604;2023-05-07T15:09:45;22.12;28.71
54540;SHT30;40438;52.992;18.604;2023-05-07T15:12:11;22.61;27.97
54540;SHT30;40438;52.992;18.604;2023-05-07T15:14:37;22.53;27.18
54540;SHT30;40438;52.992;18.604;2023-05-07T15:17:03;22.41;27.51
54540;SHT30;40438;52.992;18.604;2023-05-07T15:19:29;22.43;27.98
54540;SHT30;40438;52.992;18.604;2023-05-07T15:21:54;22.45;28.72
54540;SHT30;40438;52.992;18.604;2023-05-07T15:24:20;23.05;27.64
54540;SHT30;40438;52.992;18.604;2023-05-07T15:26:47;23.08;27.61
54540;SHT30;40438;52.992;18.604;2023-05-07T15:29:13;22.81;27.23
54540;SHT30;40438;52.992;18.604;2023-05-07T15:31:39;22.84;27.11
54540;SHT30;40438;52.992;18.604;2023-05-07T15:34:05;23.06;27.37